メインページ
METAR-TAF:

METAR-TAF

空港 :

エルサルバドル, エルサルバドル

エルサルバドル国際空港

緯度: 13-26N, 経度: 089-03W, 海抜: 25m

現時点の気象観測

当レポートは27分前の01:50(UTC)に作成
南西の風 2kt
気温 30°C
湿度 70%
気圧 1011 hPa
視程10km以上
高度3000ftの千切れ雲あり
煙霧

METAR: MSLP 010150Z 23002KT 9999 BKN030 30/24 Q1011 A2985 HZ NOSIG

時間: 20:17 (02:17 UTC)

予報

当レポートは4時間52分前の21:25(UTC)に作成
予報は01日の 00時(UTC)から 01日の 24時(UTC)まで有効
変向風 6kt
視程10km以上
高度2300ftの雲はほとんどない
高度3700ftの雲はほとんどない, 積乱雲.
確率 40% :
01日の 05時(UTC)から 01日の 09時(UTC)まで一時的に
東/南東の風 9kt
視程: 7000m
高度2000ftの雲は散在している
高度3700ftの雲はほとんどない, 積乱雲.
にわか雨
01日の 0900時(UTC)から
北東の風 6kt
視程: 8000m
高度2000ftの雲はほとんどない
高度6000ftの雲は散在している

TAF: MSLP 302125Z 0100/0124 VRB06KT 9999 FEW023 FEW037CB TX34/0118Z TN24/0111Z PROB40 TEMPO 0105/0109 12009KT 7000 SHRA SCT020 FEW037CB FM010900 05006KT 8000 FEW020 SCT060

4,000以上の空港の気象観測と天気予報(METAR報とTAF報)

利用可能な観測所は地図上に黄色い丸と赤い丸で示す。

丸の上にカーソルを重ねると観測所名を参照できる。

次にクリックすると気象観測と天気予報を参照できる。

マップの切り替え:黒色「×」印の緑ボタンをクリックして拡大、「-」印の緑ボタンをクリックして縮小、緑色の三角印をクリックして隣りの地図に切り替え


METAR-TAF: